sensor_id;sensor_type;location;lat;lon;timestamp;temperature;humidity
5930;DHT22;2990;48.746;9.236;2022-08-19T00:00:16;20.50;1.00
5930;DHT22;2990;48.746;9.236;2022-08-19T00:02:42;20.50;1.00
5930;DHT22;2990;48.746;9.236;2022-08-19T00:05:10;20.50;1.00
5930;DHT22;2990;48.746;9.236;2022-08-19T00:07:36;20.40;45.50
5930;DHT22;2990;48.746;9.236;2022-08-19T00:10:04;20.40;1.00
5930;DHT22;2990;48.746;9.236;2022-08-19T00:12:30;20.40;1.00
5930;DHT22;2990;48.746;9.236;2022-08-19T00:14:56;20.40;1.00
5930;DHT22;2990;48.746;9.236;2022-08-19T00:17:21;20.50;1.00
5930;DHT22;2990;48.746;9.236;2022-08-19T00:19:47;20.40;1.00
5930;DHT22;2990;48.746;9.236;2022-08-19T00:22:13;20.40;1.00
5930;DHT22;2990;48.746;9.236;2022-08-19T00:24:39;20.50;1.00
5930;DHT22;2990;48.746;9.236;2022-08-19T00:27:06;20.40;1.00
5930;DHT22;2990;48.746;9.236;2022-08-19T00:29:32;20.30;8.40
5930;DHT22;2990;48.746;9.236;2022-08-19T00:31:57;20.40;99.90
5930;DHT22;2990;48.746;9.236;2022-08-19T00:34:25;20.40;99.90
5930;DHT22;2990;48.746;9.236;2022-08-19T00:36:53;20.30;99.90
5930;DHT22;2990;48.746;9.236;2022-08-19T00:39:19;20.40;99.90
5930;DHT22;2990;48.746;9.236;2022-08-19T00:41:45;20.30;1.00
5930;DHT22;2990;48.746;9.236;2022-08-19T00:44:25;20.30;1.00
5930;DHT22;2990;48.746;9.236;2022-08-19T00:46:54;20.20;99.90
5930;DHT22;2990;48.746;9.236;2022-08-19T00:49:27;20.10;1.00
5930;DHT22;2990;48.746;9.236;2022-08-19T00:52:07;20.10;1.00
5930;DHT22;2990;48.746;9.236;2022-08-19T00:54:35;20.00;1.00
5930;DHT22;2990;48.746;9.236;2022-08-19T00:57:05;20.10;1.00
5930;DHT22;2990;48.746;9.236;2022-08-19T00:59:33;20.00;1.00
5930;DHT22;2990;48.746;9.236;2022-08-19T01:01:59;20.10;99.90
5930;DHT22;2990;48.746;9.236;2022-08-19T01:04:25;20.00;99.90
5930;DHT22;2990;48.746;9.236;2022-08-19T01:06:51;20.00;99.90
5930;DHT22;2990;48.746;9.236;2022-08-19T01:09:16;19.90;99.90
5930;DHT22;2990;48.746;9.236;2022-08-19T01:11:44;19.90;99.90
5930;DHT22;2990;48.746;9.236;2022-08-19T01:14:10;19.90;99.90
5930;DHT22;2990;48.746;9.236;2022-08-19T01:16:38;19.90;99.90
5930;DHT22;2990;48.746;9.236;2022-08-19T01:19:15;20.00;1.00
5930;DHT22;2990;48.746;9.236;2022-08-19T01:21:55;20.00;1.00
5930;DHT22;2990;48.746;9.236;2022-08-19T01:24:23;20.00;13.40
5930;DHT22;2990;48.746;9.236;2022-08-19T01:26:49;20.00;99.90
5930;DHT22;2990;48.746;9.236;2022-08-19T01:29:15;19.90;92.80
5930;DHT22;2990;48.746;9.236;2022-08-19T01:31:40;19.90;99.90
5930;DHT22;2990;48.746;9.236;2022-08-19T01:34:07;20.00;99.90
5930;DHT22;2990;48.746;9.236;2022-08-19T01:36:38;19.90;99.90
5930;DHT22;2990;48.746;9.236;2022-08-19T01:39:07;19.90;1.00
5930;DHT22;2990;48.746;9.236;2022-08-19T01:41:35;19.90;1.00
5930;DHT22;2990;48.746;9.236;2022-08-19T01:44:00;19.90;99.90
5930;DHT22;2990;48.746;9.236;2022-08-19T01:46:29;19.90;98.40
5930;DHT22;2990;48.746;9.236;2022-08-19T01:48:55;19.90;99.90
5930;DHT22;2990;48.746;9.236;2022-08-19T01:51:21;19.90;99.90
5930;DHT22;2990;48.746;9.236;2022-08-19T01:53:50;19.90;99.90
5930;DHT22;2990;48.746;9.236;2022-08-19T01:56:17;19.90;29.80
5930;DHT22;2990;48.746;9.236;2022-08-19T01:58:49;19.90;99.90
5930;DHT22;2990;48.746;9.236;2022-08-19T02:01:16;19.90;99.90
5930;DHT22;2990;48.746;9.236;2022-08-19T02:03:42;19.90;99.90
5930;DHT22;2990;48.746;9.236;2022-08-19T02:06:08;19.90;1.00
5930;DHT22;2990;48.746;9.236;2022-08-19T02:08:36;19.90;38.20
5930;DHT22;2990;48.746;9.236;2022-08-19T02:11:02;19.90;99.90
5930;DHT22;2990;48.746;9.236;2022-08-19T02:13:27;19.90;99.90
5930;DHT22;2990;48.746;9.236;2022-08-19T02:15:53;19.90;99.90
5930;DHT22;2990;48.746;9.236;2022-08-19T02:18:18;19.90;64.20
5930;DHT22;2990;48.746;9.236;2022-08-19T02:20:44;19.90;1.00
5930;DHT22;2990;48.746;9.236;2022-08-19T02:23:13;19.90;99.90
5930;DHT22;2990;48.746;9.236;2022-08-19T02:25:39;19.90;1.00
5930;DHT22;2990;48.746;9.236;2022-08-19T02:28:05;19.90;1.00
5930;DHT22;2990;48.746;9.236;2022-08-19T02:30:31;19.80;1.00
5930;DHT22;2990;48.746;9.236;2022-08-19T02:32:56;19.80;43.40
5930;DHT22;2990;48.746;9.236;2022-08-19T02:35:23;19.80;99.90
5930;DHT22;2990;48.746;9.236;2022-08-19T02:37:48;19.80;99.90
5930;DHT22;2990;48.746;9.236;2022-08-19T02:40:33;19.70;1.00
5930;DHT22;2990;48.746;9.236;2022-08-19T02:43:03;19.70;1.00
5930;DHT22;2990;48.746;9.236;2022-08-19T02:45:36;19.70;1.00
5930;DHT22;2990;48.746;9.236;2022-08-19T02:48:02;19.60;99.90
5930;DHT22;2990;48.746;9.236;2022-08-19T02:50:28;19.60;99.90
5930;DHT22;2990;48.746;9.236;2022-08-19T02:52:54;19.70;66.40
5930;DHT22;2990;48.746;9.236;2022-08-19T02:55:19;19.60;1.00
5930;DHT22;2990;48.746;9.236;2022-08-19T02:57:46;19.70;1.00
5930;DHT22;2990;48.746;9.236;2022-08-19T03:00:12;19.60;1.00
5930;DHT22;2990;48.746;9.236;2022-08-19T03:02:38;19.50;1.00
5930;DHT22;2990;48.746;9.236;2022-08-19T03:05:04;19.40;99.90
5930;DHT22;2990;48.746;9.236;2022-08-19T03:07:30;19.40;1.00
5930;DHT22;2990;48.746;9.236;2022-08-19T03:09:56;19.40;1.00
5930;DHT22;2990;48.746;9.236;2022-08-19T03:12:22;19.40;11.60
5930;DHT22;2990;48.746;9.236;2022-08-19T03:14:47;19.40;1.00
5930;DHT22;2990;48.746;9.236;2022-08-19T03:17:13;19.30;1.00
5930;DHT22;2990;48.746;9.236;2022-08-19T03:19:39;19.30;1.00
5930;DHT22;2990;48.746;9.236;2022-08-19T03:22:04;19.30;1.00
5930;DHT22;2990;48.746;9.236;2022-08-19T03:24:31;19.30;99.90
5930;DHT22;2990;48.746;9.236;2022-08-19T03:27:03;19.30;99.90
5930;DHT22;2990;48.746;9.236;2022-08-19T03:29:31;19.30;1.00
5930;DHT22;2990;48.746;9.236;2022-08-19T03:32:02;19.30;1.00
5930;DHT22;2990;48.746;9.236;2022-08-19T03:34:30;19.30;1.00
5930;DHT22;2990;48.746;9.236;2022-08-19T03:36:58;19.20;99.90
5930;DHT22;2990;48.746;9.236;2022-08-19T03:39:25;19.20;99.90
5930;DHT22;2990;48.746;9.236;2022-08-19T03:41:52;19.20;99.90
5930;DHT22;2990;48.746;9.236;2022-08-19T03:44:20;19.20;1.00
5930;DHT22;2990;48.746;9.236;2022-08-19T03:46:52;19.10;1.00
5930;DHT22;2990;48.746;9.236;2022-08-19T03:49:20;19.10;99.90
5930;DHT22;2990;48.746;9.236;2022-08-19T03:51:48;19.10;1.00
5930;DHT22;2990;48.746;9.236;2022-08-19T03:54:15;19.10;1.00
5930;DHT22;2990;48.746;9.236;2022-08-19T03:56:43;19.00;99.90
5930;DHT22;2990;48.746;9.236;2022-08-19T03:59:12;19.00;1.00
5930;DHT22;2990;48.746;9.236;2022-08-19T04:01:38;19.10;99.90
5930;DHT22;2990;48.746;9.236;2022-08-19T04:04:04;19.00;1.00
5930;DHT22;2990;48.746;9.236;2022-08-19T04:06:33;19.00;99.90
5930;DHT22;2990;48.746;9.236;2022-08-19T04:09:01;19.00;1.00
5930;DHT22;2990;48.746;9.236;2022-08-19T04:11:33;19.00;1.00
5930;DHT22;2990;48.746;9.236;2022-08-19T04:14:00;19.00;1.00
5930;DHT22;2990;48.746;9.236;2022-08-19T04:16:27;19.00;99.90
5930;DHT22;2990;48.746;9.236;2022-08-19T04:18:55;19.00;1.00
5930;DHT22;2990;48.746;9.236;2022-08-19T04:21:24;19.00;1.00
5930;DHT22;2990;48.746;9.236;2022-08-19T04:23:50;19.00;1.00
5930;DHT22;2990;48.746;9.236;2022-08-19T04:26:25;19.00;1.00
5930;DHT22;2990;48.746;9.236;2022-08-19T04:28:51;18.90;99.90
5930;DHT22;2990;48.746;9.236;2022-08-19T04:31:24;18.90;1.00
5930;DHT22;2990;48.746;9.236;2022-08-19T04:33:57;18.90;1.00
5930;DHT22;2990;48.746;9.236;2022-08-19T04:36:26;19.00;1.00
5930;DHT22;2990;48.746;9.236;2022-08-19T04:38:57;19.00;99.90
5930;DHT22;2990;48.746;9.236;2022-08-19T04:41:24;18.90;1.00
5930;DHT22;2990;48.746;9.236;2022-08-19T04:44:08;18.90;1.00
5930;DHT22;2990;48.746;9.236;2022-08-19T04:46:34;18.90;99.90
5930;DHT22;2990;48.746;9.236;2022-08-19T04:49:02;18.90;99.90
5930;DHT22;2990;48.746;9.236;2022-08-19T04:51:28;18.90;99.90
5930;DHT22;2990;48.746;9.236;2022-08-19T04:53:56;18.90;99.90
5930;DHT22;2990;48.746;9.236;2022-08-19T04:56:22;18.90;60.30
5930;DHT22;2990;48.746;9.236;2022-08-19T04:58:48;18.90;99.90
5930;DHT22;2990;48.746;9.236;2022-08-19T05:01:24;18.80;99.90
5930;DHT22;2990;48.746;9.236;2022-08-19T05:03:50;18.90;1.00
5930;DHT22;2990;48.746;9.236;2022-08-19T05:06:19;18.80;1.00
5930;DHT22;2990;48.746;9.236;2022-08-19T05:08:45;18.80;1.00
5930;DHT22;2990;48.746;9.236;2022-08-19T05:11:13;18.90;1.00
5930;DHT22;2990;48.746;9.236;2022-08-19T05:13:39;18.90;1.00
5930;DHT22;2990;48.746;9.236;2022-08-19T05:16:05;18.90;1.00
5930;DHT22;2990;48.746;9.236;2022-08-19T05:18:30;18.90;1.00
5930;DHT22;2990;48.746;9.236;2022-08-19T05:21:17;18.80;1.00
5930;DHT22;2990;48.746;9.236;2022-08-19T05:24:03;19.00;1.00
5930;DHT22;2990;48.746;9.236;2022-08-19T05:26:29;18.90;1.00
5930;DHT22;2990;48.746;9.236;2022-08-19T05:28:55;19.00;99.90
5930;DHT22;2990;48.746;9.236;2022-08-19T05:31:20;19.00;99.90
5930;DHT22;2990;48.746;9.236;2022-08-19T05:33:46;18.90;99.90
5930;DHT22;2990;48.746;9.236;2022-08-19T05:36:12;19.10;99.90
5930;DHT22;2990;48.746;9.236;2022-08-19T05:38:39;19.00;99.90
5930;DHT22;2990;48.746;9.236;2022-08-19T05:41:12;19.00;99.90
5930;DHT22;2990;48.746;9.236;2022-08-19T05:43:38;19.00;5.40
5930;DHT22;2990;48.746;9.236;2022-08-19T05:46:05;19.00;1.00
5930;DHT22;2990;48.746;9.236;2022-08-19T05:48:32;19.00;1.00
5930;DHT22;2990;48.746;9.236;2022-08-19T05:51:02;19.00;1.00
5930;DHT22;2990;48.746;9.236;2022-08-19T05:53:28;19.00;1.00
5930;DHT22;2990;48.746;9.236;2022-08-19T05:55:53;19.00;99.90
5930;DHT22;2990;48.746;9.236;2022-08-19T05:58:19;19.00;99.90
5930;DHT22;2990;48.746;9.236;2022-08-19T06:00:44;19.00;99.90
5930;DHT22;2990;48.746;9.236;2022-08-19T06:03:10;19.00;1.00
5930;DHT22;2990;48.746;9.236;2022-08-19T06:05:36;19.00;99.90
5930;DHT22;2990;48.746;9.236;2022-08-19T06:08:01;19.00;1.00
5930;DHT22;2990;48.746;9.236;2022-08-19T06:10:28;19.00;1.00
5930;DHT22;2990;48.746;9.236;2022-08-19T06:12:53;19.00;1.00
5930;DHT22;2990;48.746;9.236;2022-08-19T06:15:19;19.00;1.00
5930;DHT22;2990;48.746;9.236;2022-08-19T06:17:45;19.00;99.90
5930;DHT22;2990;48.746;9.236;2022-08-19T06:20:12;18.90;2.20
5930;DHT22;2990;48.746;9.236;2022-08-19T06:22:44;18.80;1.00
5930;DHT22;2990;48.746;9.236;2022-08-19T06:25:11;18.70;3.00
5930;DHT22;2990;48.746;9.236;2022-08-19T06:27:37;18.60;99.90
5930;DHT22;2990;48.746;9.236;2022-08-19T06:30:03;18.50;1.00
5930;DHT22;2990;48.746;9.236;2022-08-19T06:32:29;18.50;1.00
5930;DHT22;2990;48.746;9.236;2022-08-19T06:34:55;18.40;1.00
5930;DHT22;2990;48.746;9.236;2022-08-19T06:37:21;18.30;1.00
5930;DHT22;2990;48.746;9.236;2022-08-19T06:39:48;18.30;1.00
5930;DHT22;2990;48.746;9.236;2022-08-19T06:42:14;18.30;1.00
5930;DHT22;2990;48.746;9.236;2022-08-19T06:44:45;18.30;1.00
5930;DHT22;2990;48.746;9.236;2022-08-19T06:47:17;18.30;1.00
5930;DHT22;2990;48.746;9.236;2022-08-19T06:49:43;18.30;1.00
5930;DHT22;2990;48.746;9.236;2022-08-19T06:52:09;18.30;1.00
5930;DHT22;2990;48.746;9.236;2022-08-19T06:54:37;18.30;1.00
5930;DHT22;2990;48.746;9.236;2022-08-19T06:57:04;18.40;1.00
5930;DHT22;2990;48.746;9.236;2022-08-19T06:59:31;18.40;1.00
5930;DHT22;2990;48.746;9.236;2022-08-19T07:01:59;18.40;1.00
5930;DHT22;2990;48.746;9.236;2022-08-19T07:04:29;18.40;1.00
5930;DHT22;2990;48.746;9.236;2022-08-19T07:06:59;18.40;1.00
5930;DHT22;2990;48.746;9.236;2022-08-19T07:09:26;18.40;1.00
5930;DHT22;2990;48.746;9.236;2022-08-19T07:11:53;18.50;1.00
5930;DHT22;2990;48.746;9.236;2022-08-19T07:14:22;18.50;1.00
5930;DHT22;2990;48.746;9.236;2022-08-19T07:16:50;18.60;1.00
5930;DHT22;2990;48.746;9.236;2022-08-19T07:19:18;18.60;1.00
5930;DHT22;2990;48.746;9.236;2022-08-19T07:21:45;18.70;1.00
5930;DHT22;2990;48.746;9.236;2022-08-19T07:24:11;18.70;1.00
5930;DHT22;2990;48.746;9.236;2022-08-19T07:26:40;18.60;1.00
5930;DHT22;2990;48.746;9.236;2022-08-19T07:29:06;18.70;1.00
5930;DHT22;2990;48.746;9.236;2022-08-19T07:31:32;18.70;1.00
5930;DHT22;2990;48.746;9.236;2022-08-19T07:34:04;18.70;1.00
5930;DHT22;2990;48.746;9.236;2022-08-19T07:36:33;18.70;1.00
5930;DHT22;2990;48.746;9.236;2022-08-19T07:39:02;18.60;1.00
5930;DHT22;2990;48.746;9.236;2022-08-19T07:41:29;18.60;1.00
5930;DHT22;2990;48.746;9.236;2022-08-19T07:43:57;18.50;1.00
5930;DHT22;2990;48.746;9.236;2022-08-19T07:46:23;18.40;1.00
5930;DHT22;2990;48.746;9.236;2022-08-19T07:48:50;18.20;1.00
5930;DHT22;2990;48.746;9.236;2022-08-19T08:45:10;17.50;99.90
5930;DHT22;2990;48.746;9.236;2022-08-19T08:47:12;17.50;99.90
5930;DHT22;2990;48.746;9.236;2022-08-19T08:52:11;17.60;99.90
5930;DHT22;2990;48.746;9.236;2022-08-19T08:54:45;17.70;99.90
5930;DHT22;2990;48.746;9.236;2022-08-19T08:57:29;17.80;99.90
5930;DHT22;2990;48.746;9.236;2022-08-19T08:59:57;17.90;99.90
5930;DHT22;2990;48.746;9.236;2022-08-19T09:02:26;18.00;99.90
5930;DHT22;2990;48.746;9.236;2022-08-19T09:04:53;18.10;99.90
5930;DHT22;2990;48.746;9.236;2022-08-19T09:07:29;18.20;99.90
5930;DHT22;2990;48.746;9.236;2022-08-19T09:10:07;18.20;99.90
5930;DHT22;2990;48.746;9.236;2022-08-19T09:15:24;18.50;99.20
5930;DHT22;2990;48.746;9.236;2022-08-19T09:17:52;18.60;84.00
5930;DHT22;2990;48.746;9.236;2022-08-19T09:20:23;18.60;47.30
5930;DHT22;2990;48.746;9.236;2022-08-19T09:22:50;18.50;36.50
5930;DHT22;2990;48.746;9.236;2022-08-19T09:25:18;18.50;31.60
5930;DHT22;2990;48.746;9.236;2022-08-19T09:27:45;18.50;45.70
5930;DHT22;2990;48.746;9.236;2022-08-19T09:30:20;18.40;58.80
5930;DHT22;2990;48.746;9.236;2022-08-19T09:32:47;18.40;59.50
5930;DHT22;2990;48.746;9.236;2022-08-19T09:35:14;18.30;88.30
5930;DHT22;2990;48.746;9.236;2022-08-19T09:37:40;18.20;92.10
5930;DHT22;2990;48.746;9.236;2022-08-19T10:34:55;17.70;99.90
5930;DHT22;2990;48.746;9.236;2022-08-19T10:44:29;18.00;99.90
5930;DHT22;2990;48.746;9.236;2022-08-19T10:46:55;18.00;99.90
5930;DHT22;2990;48.746;9.236;2022-08-19T10:51:48;18.10;99.90
5930;DHT22;2990;48.746;9.236;2022-08-19T10:56:46;18.20;99.90
5930;DHT22;2990;48.746;9.236;2022-08-19T10:59:27;18.30;99.90
5930;DHT22;2990;48.746;9.236;2022-08-19T11:44:05;18.50;99.90
